sensor_id;sensor_type;location;lat;lon;timestamp;temperature;humidity
39621;DHT22;25309;48.686;9.170;2022-08-03T00:00:25;21.40;99.90
39621;DHT22;25309;48.686;9.170;2022-08-03T00:02:52;21.30;99.90
39621;DHT22;25309;48.686;9.170;2022-08-03T00:05:20;21.30;99.90
39621;DHT22;25309;48.686;9.170;2022-08-03T00:07:46;21.20;99.90
39621;DHT22;25309;48.686;9.170;2022-08-03T00:10:15;21.10;99.90
39621;DHT22;25309;48.686;9.170;2022-08-03T00:12:44;21.10;99.90
39621;DHT22;25309;48.686;9.170;2022-08-03T00:15:11;21.00;99.90
39621;DHT22;25309;48.686;9.170;2022-08-03T00:17:42;21.00;99.90
39621;DHT22;25309;48.686;9.170;2022-08-03T00:20:19;20.90;99.90
39621;DHT22;25309;48.686;9.170;2022-08-03T00:22:46;20.90;99.90
39621;DHT22;25309;48.686;9.170;2022-08-03T00:25:13;20.90;99.90
39621;DHT22;25309;48.686;9.170;2022-08-03T00:27:40;20.90;99.90
39621;DHT22;25309;48.686;9.170;2022-08-03T00:30:09;20.90;99.90
39621;DHT22;25309;48.686;9.170;2022-08-03T00:32:36;21.00;99.90
39621;DHT22;25309;48.686;9.170;2022-08-03T00:35:10;20.90;99.90
39621;DHT22;25309;48.686;9.170;2022-08-03T00:37:58;20.90;99.90
39621;DHT22;25309;48.686;9.170;2022-08-03T00:40:25;20.90;99.90
39621;DHT22;25309;48.686;9.170;2022-08-03T00:42:54;20.80;99.90
39621;DHT22;25309;48.686;9.170;2022-08-03T00:45:23;20.70;99.90
39621;DHT22;25309;48.686;9.170;2022-08-03T00:47:51;20.60;99.90
39621;DHT22;25309;48.686;9.170;2022-08-03T00:50:20;20.60;99.90
39621;DHT22;25309;48.686;9.170;2022-08-03T00:52:49;20.50;99.90
39621;DHT22;25309;48.686;9.170;2022-08-03T00:55:17;20.50;99.90
39621;DHT22;25309;48.686;9.170;2022-08-03T00:57:44;20.40;99.90
39621;DHT22;25309;48.686;9.170;2022-08-03T01:00:13;20.40;99.90
39621;DHT22;25309;48.686;9.170;2022-08-03T01:02:42;20.40;99.90
39621;DHT22;25309;48.686;9.170;2022-08-03T01:05:09;20.40;99.90
39621;DHT22;25309;48.686;9.170;2022-08-03T01:07:48;20.40;99.90
39621;DHT22;25309;48.686;9.170;2022-08-03T01:10:25;20.40;99.90
39621;DHT22;25309;48.686;9.170;2022-08-03T01:13:01;20.40;99.90
39621;DHT22;25309;48.686;9.170;2022-08-03T01:15:35;20.50;99.90
39621;DHT22;25309;48.686;9.170;2022-08-03T01:18:08;20.40;99.90
39621;DHT22;25309;48.686;9.170;2022-08-03T01:20:41;20.40;99.90
39621;DHT22;25309;48.686;9.170;2022-08-03T01:23:45;20.40;99.90
39621;DHT22;25309;48.686;9.170;2022-08-03T01:26:33;20.40;99.90
39621;DHT22;25309;48.686;9.170;2022-08-03T01:29:16;20.30;99.90
39621;DHT22;25309;48.686;9.170;2022-08-03T01:31:56;20.40;99.90
39621;DHT22;25309;48.686;9.170;2022-08-03T01:34:47;20.30;99.90
39621;DHT22;25309;48.686;9.170;2022-08-03T01:37:25;20.30;99.90
39621;DHT22;25309;48.686;9.170;2022-08-03T01:39:55;20.30;99.90
39621;DHT22;25309;48.686;9.170;2022-08-03T01:42:24;20.20;99.90
39621;DHT22;25309;48.686;9.170;2022-08-03T01:44:52;20.20;99.90
39621;DHT22;25309;48.686;9.170;2022-08-03T01:47:23;20.20;99.90
39621;DHT22;25309;48.686;9.170;2022-08-03T01:49:51;20.20;99.90
39621;DHT22;25309;48.686;9.170;2022-08-03T01:52:20;20.20;99.90
39621;DHT22;25309;48.686;9.170;2022-08-03T01:54:49;20.20;99.90
39621;DHT22;25309;48.686;9.170;2022-08-03T01:57:18;20.20;99.90
39621;DHT22;25309;48.686;9.170;2022-08-03T01:59:47;20.20;99.90
39621;DHT22;25309;48.686;9.170;2022-08-03T02:02:15;20.10;99.90
39621;DHT22;25309;48.686;9.170;2022-08-03T02:05:03;20.10;99.90
39621;DHT22;25309;48.686;9.170;2022-08-03T02:07:32;20.10;99.90
39621;DHT22;25309;48.686;9.170;2022-08-03T02:10:03;20.00;99.90
39621;DHT22;25309;48.686;9.170;2022-08-03T02:12:31;20.00;99.90
39621;DHT22;25309;48.686;9.170;2022-08-03T02:15:01;20.00;99.90
39621;DHT22;25309;48.686;9.170;2022-08-03T02:17:28;20.00;99.90
39621;DHT22;25309;48.686;9.170;2022-08-03T02:20:08;19.90;99.90
39621;DHT22;25309;48.686;9.170;2022-08-03T02:22:38;19.90;99.90
39621;DHT22;25309;48.686;9.170;2022-08-03T02:25:07;20.00;99.90
39621;DHT22;25309;48.686;9.170;2022-08-03T02:27:35;19.90;99.90
39621;DHT22;25309;48.686;9.170;2022-08-03T02:30:10;19.90;99.90
39621;DHT22;25309;48.686;9.170;2022-08-03T02:32:40;19.80;99.90
39621;DHT22;25309;48.686;9.170;2022-08-03T02:35:12;19.80;99.90
39621;DHT22;25309;48.686;9.170;2022-08-03T02:37:42;19.80;99.90
39621;DHT22;25309;48.686;9.170;2022-08-03T02:40:17;19.70;99.90
39621;DHT22;25309;48.686;9.170;2022-08-03T02:42:46;19.70;99.90
39621;DHT22;25309;48.686;9.170;2022-08-03T02:45:16;19.60;99.90
39621;DHT22;25309;48.686;9.170;2022-08-03T02:47:45;19.60;99.90
39621;DHT22;25309;48.686;9.170;2022-08-03T02:50:22;19.60;99.90
39621;DHT22;25309;48.686;9.170;2022-08-03T02:52:51;19.60;99.90
39621;DHT22;25309;48.686;9.170;2022-08-03T02:55:19;19.60;99.90
39621;DHT22;25309;48.686;9.170;2022-08-03T02:57:49;19.70;99.90
39621;DHT22;25309;48.686;9.170;2022-08-03T03:00:17;19.70;99.90
39621;DHT22;25309;48.686;9.170;2022-08-03T03:02:56;19.60;99.90
39621;DHT22;25309;48.686;9.170;2022-08-03T03:05:24;19.60;99.90
39621;DHT22;25309;48.686;9.170;2022-08-03T03:08:12;19.60;99.90
39621;DHT22;25309;48.686;9.170;2022-08-03T03:10:44;19.60;99.90
39621;DHT22;25309;48.686;9.170;2022-08-03T03:13:13;19.60;99.90
39621;DHT22;25309;48.686;9.170;2022-08-03T03:15:41;19.60;99.90
39621;DHT22;25309;48.686;9.170;2022-08-03T03:18:09;19.50;99.90
39621;DHT22;25309;48.686;9.170;2022-08-03T03:20:38;19.50;99.90
39621;DHT22;25309;48.686;9.170;2022-08-03T03:23:07;19.50;99.90
39621;DHT22;25309;48.686;9.170;2022-08-03T03:25:35;19.50;99.90
39621;DHT22;25309;48.686;9.170;2022-08-03T03:28:03;19.50;99.90
39621;DHT22;25309;48.686;9.170;2022-08-03T03:30:33;19.40;99.90
39621;DHT22;25309;48.686;9.170;2022-08-03T03:33:00;19.40;99.90
39621;DHT22;25309;48.686;9.170;2022-08-03T03:35:28;19.40;99.90
39621;DHT22;25309;48.686;9.170;2022-08-03T03:37:57;19.40;99.90
39621;DHT22;25309;48.686;9.170;2022-08-03T03:40:24;19.40;99.90
39621;DHT22;25309;48.686;9.170;2022-08-03T03:42:51;19.40;99.90
39621;DHT22;25309;48.686;9.170;2022-08-03T03:45:18;19.40;99.90
39621;DHT22;25309;48.686;9.170;2022-08-03T03:47:46;19.30;99.90
39621;DHT22;25309;48.686;9.170;2022-08-03T03:50:14;19.20;99.90
39621;DHT22;25309;48.686;9.170;2022-08-03T03:52:43;19.20;99.90
39621;DHT22;25309;48.686;9.170;2022-08-03T03:55:15;19.20;99.90
39621;DHT22;25309;48.686;9.170;2022-08-03T03:57:43;19.10;99.90
39621;DHT22;25309;48.686;9.170;2022-08-03T04:00:12;19.10;99.90
39621;DHT22;25309;48.686;9.170;2022-08-03T04:02:39;19.10;99.90
39621;DHT22;25309;48.686;9.170;2022-08-03T04:05:07;19.10;99.90
39621;DHT22;25309;48.686;9.170;2022-08-03T04:07:56;19.10;99.90
39621;DHT22;25309;48.686;9.170;2022-08-03T04:11:01;19.10;99.90
39621;DHT22;25309;48.686;9.170;2022-08-03T04:13:31;19.10;99.90
39621;DHT22;25309;48.686;9.170;2022-08-03T04:15:59;19.00;99.90
39621;DHT22;25309;48.686;9.170;2022-08-03T04:18:29;18.90;99.90
39621;DHT22;25309;48.686;9.170;2022-08-03T04:20:59;18.90;99.90
39621;DHT22;25309;48.686;9.170;2022-08-03T04:23:30;18.80;99.90
39621;DHT22;25309;48.686;9.170;2022-08-03T04:25:59;18.80;99.90
39621;DHT22;25309;48.686;9.170;2022-08-03T04:28:28;18.70;99.90
39621;DHT22;25309;48.686;9.170;2022-08-03T04:30:58;18.70;99.90
39621;DHT22;25309;48.686;9.170;2022-08-03T04:33:26;18.70;99.90
39621;DHT22;25309;48.686;9.170;2022-08-03T04:35:57;18.60;99.90
39621;DHT22;25309;48.686;9.170;2022-08-03T04:38:30;18.70;99.90
39621;DHT22;25309;48.686;9.170;2022-08-03T04:40:59;18.70;99.90
39621;DHT22;25309;48.686;9.170;2022-08-03T04:43:27;18.70;99.90
39621;DHT22;25309;48.686;9.170;2022-08-03T04:45:55;18.80;99.90
39621;DHT22;25309;48.686;9.170;2022-08-03T04:48:23;18.90;99.90
39621;DHT22;25309;48.686;9.170;2022-08-03T04:50:51;18.90;99.90
39621;DHT22;25309;48.686;9.170;2022-08-03T04:53:18;19.00;99.90
39621;DHT22;25309;48.686;9.170;2022-08-03T04:55:45;19.00;99.90
39621;DHT22;25309;48.686;9.170;2022-08-03T04:58:14;19.10;99.90
39621;DHT22;25309;48.686;9.170;2022-08-03T05:00:41;19.10;99.90
39621;DHT22;25309;48.686;9.170;2022-08-03T05:03:08;19.20;99.90
39621;DHT22;25309;48.686;9.170;2022-08-03T05:05:50;19.30;99.90
39621;DHT22;25309;48.686;9.170;2022-08-03T05:08:17;19.30;99.90
39621;DHT22;25309;48.686;9.170;2022-08-03T05:10:53;19.40;99.90
39621;DHT22;25309;48.686;9.170;2022-08-03T05:13:22;19.40;99.90
39621;DHT22;25309;48.686;9.170;2022-08-03T05:15:49;19.40;99.90
39621;DHT22;25309;48.686;9.170;2022-08-03T05:18:16;19.50;99.90
39621;DHT22;25309;48.686;9.170;2022-08-03T05:20:43;19.50;99.90
39621;DHT22;25309;48.686;9.170;2022-08-03T05:23:09;19.60;99.90
39621;DHT22;25309;48.686;9.170;2022-08-03T05:25:36;19.50;99.90
39621;DHT22;25309;48.686;9.170;2022-08-03T05:28:05;19.60;99.90
39621;DHT22;25309;48.686;9.170;2022-08-03T05:30:33;19.60;99.90
39621;DHT22;25309;48.686;9.170;2022-08-03T05:33:01;19.60;99.90
39621;DHT22;25309;48.686;9.170;2022-08-03T05:35:28;19.70;99.90
39621;DHT22;25309;48.686;9.170;2022-08-03T05:38:15;19.70;99.90
39621;DHT22;25309;48.686;9.170;2022-08-03T05:40:55;19.80;99.90
39621;DHT22;25309;48.686;9.170;2022-08-03T05:43:42;19.80;99.90
39621;DHT22;25309;48.686;9.170;2022-08-03T05:46:10;19.90;99.90
39621;DHT22;25309;48.686;9.170;2022-08-03T05:48:39;20.00;99.90
39621;DHT22;25309;48.686;9.170;2022-08-03T05:51:06;20.00;99.90
39621;DHT22;25309;48.686;9.170;2022-08-03T05:53:37;20.10;99.90
39621;DHT22;25309;48.686;9.170;2022-08-03T05:56:04;20.10;99.90
39621;DHT22;25309;48.686;9.170;2022-08-03T05:58:42;20.20;99.90
39621;DHT22;25309;48.686;9.170;2022-08-03T06:01:10;20.20;99.90
39621;DHT22;25309;48.686;9.170;2022-08-03T06:03:37;20.30;99.90
39621;DHT22;25309;48.686;9.170;2022-08-03T06:06:04;20.30;99.90
39621;DHT22;25309;48.686;9.170;2022-08-03T06:08:31;20.40;99.90
39621;DHT22;25309;48.686;9.170;2022-08-03T06:10:59;20.40;99.90
39621;DHT22;25309;48.686;9.170;2022-08-03T06:13:26;20.40;99.90
39621;DHT22;25309;48.686;9.170;2022-08-03T06:15:53;20.50;99.90
39621;DHT22;25309;48.686;9.170;2022-08-03T06:18:21;20.50;99.90
39621;DHT22;25309;48.686;9.170;2022-08-03T06:20:50;20.50;99.90
39621;DHT22;25309;48.686;9.170;2022-08-03T06:23:18;20.60;99.90
39621;DHT22;25309;48.686;9.170;2022-08-03T06:25:46;20.70;99.90
39621;DHT22;25309;48.686;9.170;2022-08-03T06:28:13;20.70;99.90
39621;DHT22;25309;48.686;9.170;2022-08-03T06:31:01;20.80;99.90
39621;DHT22;25309;48.686;9.170;2022-08-03T06:33:29;20.80;99.90
39621;DHT22;25309;48.686;9.170;2022-08-03T06:36:16;20.90;99.90
39621;DHT22;25309;48.686;9.170;2022-08-03T06:38:43;21.00;99.90
39621;DHT22;25309;48.686;9.170;2022-08-03T06:41:10;21.10;99.90
39621;DHT22;25309;48.686;9.170;2022-08-03T06:43:37;21.10;99.90
39621;DHT22;25309;48.686;9.170;2022-08-03T06:46:24;21.20;99.90
39621;DHT22;25309;48.686;9.170;2022-08-03T06:48:53;21.30;99.90
39621;DHT22;25309;48.686;9.170;2022-08-03T06:51:21;21.30;99.90
39621;DHT22;25309;48.686;9.170;2022-08-03T06:54:09;21.40;99.90
39621;DHT22;25309;48.686;9.170;2022-08-03T06:56:36;21.50;99.90
39621;DHT22;25309;48.686;9.170;2022-08-03T06:59:03;21.60;99.90
39621;DHT22;25309;48.686;9.170;2022-08-03T07:01:31;21.60;99.90
39621;DHT22;25309;48.686;9.170;2022-08-03T07:03:59;21.80;99.90
39621;DHT22;25309;48.686;9.170;2022-08-03T07:06:26;21.80;99.90
39621;DHT22;25309;48.686;9.170;2022-08-03T07:08:53;21.90;99.90
39621;DHT22;25309;48.686;9.170;2022-08-03T07:11:25;22.00;99.90
39621;DHT22;25309;48.686;9.170;2022-08-03T07:13:52;22.10;99.90
39621;DHT22;25309;48.686;9.170;2022-08-03T07:16:19;22.10;99.90
39621;DHT22;25309;48.686;9.170;2022-08-03T07:18:46;22.20;99.90
39621;DHT22;25309;48.686;9.170;2022-08-03T07:21:14;22.30;99.90
39621;DHT22;25309;48.686;9.170;2022-08-03T07:23:42;22.40;99.90
39621;DHT22;25309;48.686;9.170;2022-08-03T07:26:09;22.40;99.90
39621;DHT22;25309;48.686;9.170;2022-08-03T07:28:37;22.50;99.90
39621;DHT22;25309;48.686;9.170;2022-08-03T07:31:04;22.50;99.90
39621;DHT22;25309;48.686;9.170;2022-08-03T07:33:31;22.60;99.90
39621;DHT22;25309;48.686;9.170;2022-08-03T07:35:58;22.80;99.90
39621;DHT22;25309;48.686;9.170;2022-08-03T07:38:27;22.80;99.90
39621;DHT22;25309;48.686;9.170;2022-08-03T07:40:54;22.90;99.90
39621;DHT22;25309;48.686;9.170;2022-08-03T07:43:21;23.00;99.90
39621;DHT22;25309;48.686;9.170;2022-08-03T07:45:49;23.10;99.90
39621;DHT22;25309;48.686;9.170;2022-08-03T07:48:16;23.20;99.90
39621;DHT22;25309;48.686;9.170;2022-08-03T07:50:44;23.20;99.90
39621;DHT22;25309;48.686;9.170;2022-08-03T07:53:12;23.40;99.90
39621;DHT22;25309;48.686;9.170;2022-08-03T07:55:40;23.50;99.90
39621;DHT22;25309;48.686;9.170;2022-08-03T07:58:08;23.60;99.90
39621;DHT22;25309;48.686;9.170;2022-08-03T08:00:35;23.70;99.90
39621;DHT22;25309;48.686;9.170;2022-08-03T08:03:03;23.80;99.90
39621;DHT22;25309;48.686;9.170;2022-08-03T08:05:31;23.90;99.90
39621;DHT22;25309;48.686;9.170;2022-08-03T08:07:58;24.00;99.90
39621;DHT22;25309;48.686;9.170;2022-08-03T08:10:26;24.10;99.90
39621;DHT22;25309;48.686;9.170;2022-08-03T08:12:55;24.20;99.90
39621;DHT22;25309;48.686;9.170;2022-08-03T08:15:22;24.30;99.90
39621;DHT22;25309;48.686;9.170;2022-08-03T08:17:51;24.40;99.90
39621;DHT22;25309;48.686;9.170;2022-08-03T08:20:20;24.40;99.90
39621;DHT22;25309;48.686;9.170;2022-08-03T08:22:58;24.50;99.90
39621;DHT22;25309;48.686;9.170;2022-08-03T08:25:28;24.60;99.90
39621;DHT22;25309;48.686;9.170;2022-08-03T08:27:56;24.70;99.90
39621;DHT22;25309;48.686;9.170;2022-08-03T08:30:44;24.80;99.90
39621;DHT22;25309;48.686;9.170;2022-08-03T08:33:11;24.90;99.90
39621;DHT22;25309;48.686;9.170;2022-08-03T08:35:51;25.00;99.90
39621;DHT22;25309;48.686;9.170;2022-08-03T08:38:18;25.20;99.90
39621;DHT22;25309;48.686;9.170;2022-08-03T08:40:45;25.20;99.90
39621;DHT22;25309;48.686;9.170;2022-08-03T08:43:14;25.30;99.90
39621;DHT22;25309;48.686;9.170;2022-08-03T08:45:41;25.40;99.90
39621;DHT22;25309;48.686;9.170;2022-08-03T08:48:09;25.50;99.90
39621;DHT22;25309;48.686;9.170;2022-08-03T08:50:38;25.60;99.90
39621;DHT22;25309;48.686;9.170;2022-08-03T08:53:06;25.60;99.90
39621;DHT22;25309;48.686;9.170;2022-08-03T08:55:36;25.70;99.90
39621;DHT22;25309;48.686;9.170;2022-08-03T08:58:25;25.90;99.90
39621;DHT22;25309;48.686;9.170;2022-08-03T09:00:53;26.00;99.90
39621;DHT22;25309;48.686;9.170;2022-08-03T09:03:20;26.10;99.90
39621;DHT22;25309;48.686;9.170;2022-08-03T09:05:58;26.20;99.90
39621;DHT22;25309;48.686;9.170;2022-08-03T09:08:26;26.30;99.90
39621;DHT22;25309;48.686;9.170;2022-08-03T09:10:54;26.40;99.90
39621;DHT22;25309;48.686;9.170;2022-08-03T09:13:21;26.60;99.90
39621;DHT22;25309;48.686;9.170;2022-08-03T09:16:08;26.70;99.90
39621;DHT22;25309;48.686;9.170;2022-08-03T09:18:35;26.80;99.90
39621;DHT22;25309;48.686;9.170;2022-08-03T09:21:12;27.00;99.90
39621;DHT22;25309;48.686;9.170;2022-08-03T09:23:58;27.10;99.90
39621;DHT22;25309;48.686;9.170;2022-08-03T09:26:30;27.10;99.90
39621;DHT22;25309;48.686;9.170;2022-08-03T09:28:59;27.30;98.80
39621;DHT22;25309;48.686;9.170;2022-08-03T09:31:37;27.40;99.10
39621;DHT22;25309;48.686;9.170;2022-08-03T09:34:11;27.60;98.20
39621;DHT22;25309;48.686;9.170;2022-08-03T09:36:39;27.70;98.60
39621;DHT22;25309;48.686;9.170;2022-08-03T09:39:09;27.80;98.30
39621;DHT22;25309;48.686;9.170;2022-08-03T09:41:40;28.00;96.70
39621;DHT22;25309;48.686;9.170;2022-08-03T09:44:07;28.30;96.70
39621;DHT22;25309;48.686;9.170;2022-08-03T09:47:08;28.60;95.10
39621;DHT22;25309;48.686;9.170;2022-08-03T09:49:39;28.80;94.40
39621;DHT22;25309;48.686;9.170;2022-08-03T09:52:15;29.00;93.70
39621;DHT22;25309;48.686;9.170;2022-08-03T09:55:07;29.20;93.70
39621;DHT22;25309;48.686;9.170;2022-08-03T09:58:04;29.60;93.70
39621;DHT22;25309;48.686;9.170;2022-08-03T10:00:31;30.60;91.90
39621;DHT22;25309;48.686;9.170;2022-08-03T10:03:04;31.60;90.10
39621;DHT22;25309;48.686;9.170;2022-08-03T10:05:31;32.30;90.00
39621;DHT22;25309;48.686;9.170;2022-08-03T10:07:58;32.80;84.90
39621;DHT22;25309;48.686;9.170;2022-08-03T10:10:25;33.50;83.60
39621;DHT22;25309;48.686;9.170;2022-08-03T10:12:59;34.20;82.20
39621;DHT22;25309;48.686;9.170;2022-08-03T10:15:26;34.80;78.10
39621;DHT22;25309;48.686;9.170;2022-08-03T10:18:15;35.40;75.30
39621;DHT22;25309;48.686;9.170;2022-08-03T10:20:45;35.90;72.60
39621;DHT22;25309;48.686;9.170;2022-08-03T10:23:16;36.30;70.50
39621;DHT22;25309;48.686;9.170;2022-08-03T10:25:46;36.60;70.30
39621;DHT22;25309;48.686;9.170;2022-08-03T10:28:16;36.80;69.40
39621;DHT22;25309;48.686;9.170;2022-08-03T10:30:47;37.10;68.30
39621;DHT22;25309;48.686;9.170;2022-08-03T10:33:19;37.50;68.00
39621;DHT22;25309;48.686;9.170;2022-08-03T10:36:07;37.80;65.30
39621;DHT22;25309;48.686;9.170;2022-08-03T10:38:39;38.00;63.50
39621;DHT22;25309;48.686;9.170;2022-08-03T10:41:09;38.00;61.20
39621;DHT22;25309;48.686;9.170;2022-08-03T10:43:44;38.00;62.30
39621;DHT22;25309;48.686;9.170;2022-08-03T10:46:15;38.20;58.20
39621;DHT22;25309;48.686;9.170;2022-08-03T10:48:46;38.20;58.60
39621;DHT22;25309;48.686;9.170;2022-08-03T10:51:14;38.30;60.50
39621;DHT22;25309;48.686;9.170;2022-08-03T10:53:42;38.50;59.70
39621;DHT22;25309;48.686;9.170;2022-08-03T10:56:40;38.70;58.30
39621;DHT22;25309;48.686;9.170;2022-08-03T10:59:58;39.00;59.90
39621;DHT22;25309;48.686;9.170;2022-08-03T11:05:43;39.10;59.30
39621;DHT22;25309;48.686;9.170;2022-08-03T11:08:26;39.20;57.50
39621;DHT22;25309;48.686;9.170;2022-08-03T11:10:55;39.20;58.10
39621;DHT22;25309;48.686;9.170;2022-08-03T11:13:25;39.30;57.40
39621;DHT22;25309;48.686;9.170;2022-08-03T11:15:55;39.20;57.90
39621;DHT22;25309;48.686;9.170;2022-08-03T11:18:28;39.20;56.10
39621;DHT22;25309;48.686;9.170;2022-08-03T11:20:58;39.10;57.90
39621;DHT22;25309;48.686;9.170;2022-08-03T11:23:43;39.00;56.40
39621;DHT22;25309;48.686;9.170;2022-08-03T11:26:31;38.90;56.80
39621;DHT22;25309;48.686;9.170;2022-08-03T11:29:26;39.00;57.10
39621;DHT22;25309;48.686;9.170;2022-08-03T11:31:53;39.20;55.80
39621;DHT22;25309;48.686;9.170;2022-08-03T11:34:20;39.20;57.20
39621;DHT22;25309;48.686;9.170;2022-08-03T11:37:23;39.30;56.80
39621;DHT22;25309;48.686;9.170;2022-08-03T11:39:54;39.70;57.00
39621;DHT22;25309;48.686;9.170;2022-08-03T11:42:42;40.00;57.10
39621;DHT22;25309;48.686;9.170;2022-08-03T11:45:11;40.40;56.40
39621;DHT22;25309;48.686;9.170;2022-08-03T11:47:38;40.60;55.70
39621;DHT22;25309;48.686;9.170;2022-08-03T11:50:18;40.60;55.90
39621;DHT22;25309;48.686;9.170;2022-08-03T11:52:47;40.60;55.10
39621;DHT22;25309;48.686;9.170;2022-08-03T11:55:17;40.50;54.00
39621;DHT22;25309;48.686;9.170;2022-08-03T11:57:46;40.40;54.20
39621;DHT22;25309;48.686;9.170;2022-08-03T12:00:33;40.30;55.10
39621;DHT22;25309;48.686;9.170;2022-08-03T12:03:03;40.50;55.60
39621;DHT22;25309;48.686;9.170;2022-08-03T12:05:42;40.70;54.20
39621;DHT22;25309;48.686;9.170;2022-08-03T12:08:29;40.80;53.80
39621;DHT22;25309;48.686;9.170;2022-08-03T12:10:58;40.90;54.30
39621;DHT22;25309;48.686;9.170;2022-08-03T12:13:35;41.10;53.50
39621;DHT22;25309;48.686;9.170;2022-08-03T12:16:23;41.30;53.90
39621;DHT22;25309;48.686;9.170;2022-08-03T12:18:55;41.50;53.40
39621;DHT22;25309;48.686;9.170;2022-08-03T12:21:22;41.60;52.90
39621;DHT22;25309;48.686;9.170;2022-08-03T12:23:57;41.80;52.70
39621;DHT22;25309;48.686;9.170;2022-08-03T12:26:27;41.90;51.60
39621;DHT22;25309;48.686;9.170;2022-08-03T12:28:54;41.80;52.50
39621;DHT22;25309;48.686;9.170;2022-08-03T12:31:21;41.80;51.60
39621;DHT22;25309;48.686;9.170;2022-08-03T12:33:58;41.90;51.60
39621;DHT22;25309;48.686;9.170;2022-08-03T12:36:29;41.90;52.90
39621;DHT22;25309;48.686;9.170;2022-08-03T12:38:59;42.00;52.30
39621;DHT22;25309;48.686;9.170;2022-08-03T12:41:30;42.20;51.80
39621;DHT22;25309;48.686;9.170;2022-08-03T12:44:00;42.30;52.00
39621;DHT22;25309;48.686;9.170;2022-08-03T12:46:31;42.40;51.30
39621;DHT22;25309;48.686;9.170;2022-08-03T12:49:05;42.40;51.40
39621;DHT22;25309;48.686;9.170;2022-08-03T12:51:35;42.40;50.90
39621;DHT22;25309;48.686;9.170;2022-08-03T12:54:04;42.20;50.30
39621;DHT22;25309;48.686;9.170;2022-08-03T12:56:31;42.10;51.90
39621;DHT22;25309;48.686;9.170;2022-08-03T12:58:58;42.10;50.90
39621;DHT22;25309;48.686;9.170;2022-08-03T13:01:25;42.00;50.60
39621;DHT22;25309;48.686;9.170;2022-08-03T13:03:53;41.60;51.20
39621;DHT22;25309;48.686;9.170;2022-08-03T13:06:22;41.30;51.00
39621;DHT22;25309;48.686;9.170;2022-08-03T13:08:49;41.00;52.20
39621;DHT22;25309;48.686;9.170;2022-08-03T13:11:28;40.80;51.80
39621;DHT22;25309;48.686;9.170;2022-08-03T13:14:15;40.40;51.50
39621;DHT22;25309;48.686;9.170;2022-08-03T13:16:46;40.20;52.50
39621;DHT22;25309;48.686;9.170;2022-08-03T13:19:13;40.20;52.40
39621;DHT22;25309;48.686;9.170;2022-08-03T13:21:41;40.30;53.50
39621;DHT22;25309;48.686;9.170;2022-08-03T13:24:29;40.50;52.00
39621;DHT22;25309;48.686;9.170;2022-08-03T13:26:59;40.50;51.50
39621;DHT22;25309;48.686;9.170;2022-08-03T13:29:26;40.30;51.40
39621;DHT22;25309;48.686;9.170;2022-08-03T13:31:53;40.20;52.80
39621;DHT22;25309;48.686;9.170;2022-08-03T13:34:20;40.30;53.00
39621;DHT22;25309;48.686;9.170;2022-08-03T13:36:49;40.50;51.70
39621;DHT22;25309;48.686;9.170;2022-08-03T13:39:37;40.50;51.60
39621;DHT22;25309;48.686;9.170;2022-08-03T13:42:26;40.20;51.50
39621;DHT22;25309;48.686;9.170;2022-08-03T13:44:53;39.80;52.50
39621;DHT22;25309;48.686;9.170;2022-08-03T13:47:20;39.70;53.20
39621;DHT22;25309;48.686;9.170;2022-08-03T13:49:47;39.70;52.90
39621;DHT22;25309;48.686;9.170;2022-08-03T13:52:26;39.70;53.10
39621;DHT22;25309;48.686;9.170;2022-08-03T13:54:53;39.70;53.10
39621;DHT22;25309;48.686;9.170;2022-08-03T13:57:20;39.80;53.50
39621;DHT22;25309;48.686;9.170;2022-08-03T14:00:10;39.90;53.70
39621;DHT22;25309;48.686;9.170;2022-08-03T14:02:37;39.90;52.50
39621;DHT22;25309;48.686;9.170;2022-08-03T14:05:04;40.10;52.10
39621;DHT22;25309;48.686;9.170;2022-08-03T14:07:31;40.20;51.30
39621;DHT22;25309;48.686;9.170;2022-08-03T14:09:59;40.20;51.40
39621;DHT22;25309;48.686;9.170;2022-08-03T14:12:27;40.20;51.70
39621;DHT22;25309;48.686;9.170;2022-08-03T14:14:54;39.80;51.70
39621;DHT22;25309;48.686;9.170;2022-08-03T14:17:28;39.80;53.50
39621;DHT22;25309;48.686;9.170;2022-08-03T14:20:09;39.80;52.30
39621;DHT22;25309;48.686;9.170;2022-08-03T14:22:58;39.90;52.10
39621;DHT22;25309;48.686;9.170;2022-08-03T14:25:25;39.80;52.90
39621;DHT22;25309;48.686;9.170;2022-08-03T14:27:52;39.60;53.50
39621;DHT22;25309;48.686;9.170;2022-08-03T14:30:19;39.50;53.60
39621;DHT22;25309;48.686;9.170;2022-08-03T14:32:47;39.50;52.40
39621;DHT22;25309;48.686;9.170;2022-08-03T14:35:14;39.20;53.20
39621;DHT22;25309;48.686;9.170;2022-08-03T14:37:41;39.10;53.40
39621;DHT22;25309;48.686;9.170;2022-08-03T14:40:08;39.10;53.40
39621;DHT22;25309;48.686;9.170;2022-08-03T14:42:35;39.20;53.70
39621;DHT22;25309;48.686;9.170;2022-08-03T14:45:03;39.20;54.10
39621;DHT22;25309;48.686;9.170;2022-08-03T14:47:46;39.10;53.50
39621;DHT22;25309;48.686;9.170;2022-08-03T14:50:33;39.10;53.80
39621;DHT22;25309;48.686;9.170;2022-08-03T14:53:11;39.00;52.80
39621;DHT22;25309;48.686;9.170;2022-08-03T14:55:38;38.80;53.30
39621;DHT22;25309;48.686;9.170;2022-08-03T14:58:17;38.80;53.00
39621;DHT22;25309;48.686;9.170;2022-08-03T15:00:47;38.60;52.60
39621;DHT22;25309;48.686;9.170;2022-08-03T15:03:16;38.30;53.60
39621;DHT22;25309;48.686;9.170;2022-08-03T15:05:46;38.20;53.70
39621;DHT22;25309;48.686;9.170;2022-08-03T15:08:13;38.10;54.90
39621;DHT22;25309;48.686;9.170;2022-08-03T15:10:40;37.80;53.70
39621;DHT22;25309;48.686;9.170;2022-08-03T15:13:11;37.60;53.80
39621;DHT22;25309;48.686;9.170;2022-08-03T15:15:38;37.40;54.30
39621;DHT22;25309;48.686;9.170;2022-08-03T15:18:05;37.20;55.60
39621;DHT22;25309;48.686;9.170;2022-08-03T15:20:34;37.20;55.40
39621;DHT22;25309;48.686;9.170;2022-08-03T15:23:17;37.20;55.10
39621;DHT22;25309;48.686;9.170;2022-08-03T15:25:45;37.10;54.90
39621;DHT22;25309;48.686;9.170;2022-08-03T15:28:32;36.90;54.30
39621;DHT22;25309;48.686;9.170;2022-08-03T15:30:59;36.70;55.70
39621;DHT22;25309;48.686;9.170;2022-08-03T15:33:26;36.60;55.30
39621;DHT22;25309;48.686;9.170;2022-08-03T15:35:55;36.50;55.50
39621;DHT22;25309;48.686;9.170;2022-08-03T15:38:22;36.30;55.50
39621;DHT22;25309;48.686;9.170;2022-08-03T15:40:52;36.00;56.30
39621;DHT22;25309;48.686;9.170;2022-08-03T15:43:22;35.90;56.40
39621;DHT22;25309;48.686;9.170;2022-08-03T15:45:49;35.80;56.10
39621;DHT22;25309;48.686;9.170;2022-08-03T15:48:36;35.60;56.20
39621;DHT22;25309;48.686;9.170;2022-08-03T15:51:05;35.40;55.80
39621;DHT22;25309;48.686;9.170;2022-08-03T15:53:32;35.30;56.80
39621;DHT22;25309;48.686;9.170;2022-08-03T15:56:00;35.30;56.60
39621;DHT22;25309;48.686;9.170;2022-08-03T15:58:32;35.10;56.90
39621;DHT22;25309;48.686;9.170;2022-08-03T16:01:19;35.10;57.40